SBKG Informações do Aeroporto

Informações da Pista
Pista 15 Comprimento 5249 ft Largura 138 ft
Elevação 0 ft Limite 0 ft Heading 0
Pista 33 Comprimento 5249 ft Largura 138 ft
Elevação 0 ft Limite 0 ft Heading 0
Frequências do Aeroporto
Tipo AFIS Nome CAMPINA GR Frequência 125.9 MHZ
Navaids do Aeroporto
Tipo NDB Nome Campina Grande Frequência 230 KHZ
Informações meteorológicas do aeroporto e NOTAM
ADDS - METARS form results

(0429 UTC 25 August 2019)
Data provider http://aviationweather.gov/metar/data/
 
METAR text: SBKG 250400Z 14005KT 9999 SCT012 21/20 Q1020
Conditions at: SBKG (CAMPINA GRANDE , BR) observed 0400 UTC 25 August 2019
Temperature: 21.0°C (70°F)
Dewpoint: 20.0°C (68°F) [RH = 94%]
Pressure (altimeter): 30.12 inches Hg (1020.0 mb)
Winds: from the SE (140 degrees) at 6 MPH (5 knots; 2.6 m/s)
Visibility: 6 or more miles (10+ km)
Ceiling: at least 12,000 feet AGL
Clouds: scattered clouds at 1200 feet AGL
Weather: no significant weather observed at this time

Forecast for: SBKG (CAMPINA GRANDE , BR)
Text: TAF SBKG 242200Z 2500/2512 12005KT 9999 FEW015 TN19/2506Z TX22/2512Z RMK PEH
Forecast period: 0000 to 1200 UTC 25 August 2019
Forecast type: FROM: standard forecast or significant change
Winds: from the ESE (120 degrees) at 6 MPH (5 knots; 2.6 m/s)
Visibility: 6 or more miles 10+ km)
Ceiling: at least 12,000 feet AGL
Clouds: few clouds at 1500 feet AGL
Weather: no significant weather forecast for this period